Time;durP1;ratioP1;P1;durP2;ratioP2;P2;SDS_P1;SDS_P2;PMS_P1;PMS_P2;Temp;Humidity;BMP_temperature;BMP_pressure;BME280_temperature;BME280_humidity;BME280_pressure;Samples;Min_cycle;Max_cycle;Signal;HPM_P1;HPM_P2
2023/08/29 00:00:45;;;;;;;1.52;0.57;;;;;;;15.01;77.75;99926.06;5007780;28;20034;-61
2023/08/29 00:03:10;;;;;;;2.20;0.98;;;;;;;14.97;78.22;99926.19;5007685;28;20463;-61
2023/08/29 00:05:36;;;;;;;1.70;1.05;;;;;;;14.99;78.38;99928.75;5007588;28;20026;-61
2023/08/29 00:08:01;;;;;;;1.38;0.77;;;;;;;14.91;78.33;99920.31;5007418;28;20041;-60
2023/08/29 00:10:26;;;;;;;1.63;0.77;;;;;;;15.02;78.29;99930.38;5007743;28;20455;-61
2023/08/29 00:12:52;;;;;;;2.78;0.90;;;;;;;14.88;77.98;99913.44;5007638;28;20122;-61
2023/08/29 00:15:17;;;;;;;2.45;0.88;;;;;;;14.93;78.25;99932.44;5007658;28;20069;-61
2023/08/29 00:17:44;;;;;;;3.92;1.30;;;;;;;14.92;77.93;99932.47;5007972;28;20046;-61
2023/08/29 00:20:10;;;;;;;3.78;1.02;;;;;;;14.91;78.17;99925.53;5007641;28;20054;-61
2023/08/29 00:22:36;;;;;;;2.33;1.08;;;;;;;14.92;77.97;99932.47;5007229;28;20022;-61
2023/08/29 00:25:01;;;;;;;1.65;0.98;;;;;;;14.95;77.66;99938.44;5006656;28;20025;-61
2023/08/29 00:27:27;;;;;;;2.38;1.35;;;;;;;14.92;78.01;99927.25;5007427;28;20367;-61
2023/08/29 00:29:52;;;;;;;1.90;0.63;;;;;;;14.89;77.67;99925.59;5007521;28;20029;-61
2023/08/29 00:32:18;;;;;;;1.48;0.85;;;;;;;14.87;77.68;99925.63;5007181;28;20022;-61
2023/08/29 00:34:43;;;;;;;9.40;1.08;;;;;;;14.87;77.88;99920.41;5007516;28;20060;-60
2023/08/29 00:37:08;;;;;;;3.00;0.95;;;;;;;14.84;77.42;99912.69;5007357;28;20042;-61
2023/08/29 00:39:34;;;;;;;3.10;1.42;;;;;;;14.83;77.26;99918.81;5006850;28;20065;-61
2023/08/29 00:42:00;;;;;;;1.02;0.82;;;;;;;14.77;77.33;99907.69;5007139;28;20026;-62
2023/08/29 00:44:25;;;;;;;4.10;0.85;;;;;;;14.78;77.35;99914.59;5005554;28;20045;-62
2023/08/29 00:46:51;;;;;;;1.83;0.65;;;;;;;14.77;77.42;99915.53;5007278;28;20022;-61
2023/08/29 00:49:21;;;;;;;7.07;1.75;;;;;;;14.79;77.57;99909.34;5007275;28;20018;-60
2023/08/29 00:51:47;;;;;;;3.58;1.52;;;;;;;14.79;77.87;99913.72;5007041;28;20082;-61
2023/08/29 00:54:14;;;;;;;2.35;0.98;;;;;;;14.82;77.56;99911.91;5006934;28;20386;-61
2023/08/29 00:56:41;;;;;;;4.85;0.82;;;;;;;14.82;77.44;99917.13;5006994;28;20047;-61
2023/08/29 00:59:07;;;;;;;2.47;0.75;;;;;;;14.82;77.53;99921.47;5006877;28;20041;-61
2023/08/29 01:01:34;;;;;;;1.52;1.00;;;;;;;14.80;78.08;99925.91;5006666;28;20105;-61
2023/08/29 01:04:00;;;;;;;4.30;1.27;;;;;;;14.79;77.93;99922.41;5006881;28;20368;-61
2023/08/29 01:06:26;;;;;;;1.75;0.95;;;;;;;14.78;78.17;99914.59;5006647;28;20029;-62
2023/08/29 01:08:52;;;;;;;3.13;1.15;;;;;;;14.84;77.91;99925.75;5006400;28;20073;-61
2023/08/29 01:11:26;;;;;;;4.78;1.38;;;;;;;14.86;78.12;99926.56;5006757;28;20105;-61
2023/08/29 01:14:04;;;;;;;2.03;0.95;;;;;;;14.87;77.94;99922.19;5006839;28;20022;-61
2023/08/29 01:16:36;;;;;;;3.03;0.95;;;;;;;14.92;77.91;99919.41;5006364;28;20054;-62
2023/08/29 01:19:06;;;;;;;1.00;0.95;;;;;;;14.93;77.56;99918.50;5006281;28;20050;-62
2023/08/29 01:21:49;;;;;;;2.95;0.88;;;;;;;14.90;77.81;99923.84;5006365;28;20030;-61
2023/08/29 01:24:57;;;;;;;1.58;0.77;;;;;;;14.92;77.59;99927.25;5006375;28;20078;-61
2023/08/29 01:27:25;;;;;;;1.92;0.88;;;;;;;14.87;77.68;99935.25;4965164;29;20093;-62
2023/08/29 01:29:50;;;;;;;8.52;1.20;;;;;;;14.86;77.99;99936.13;4965416;29;20031;-62
2023/08/29 01:32:16;;;;;;;1.90;1.02;;;;;;;14.87;77.63;99938.69;4965335;29;20155;-61
2023/08/29 01:34:43;;;;;;;1.45;0.73;;;;;;;14.84;77.73;99936.19;4964964;28;20055;-61
2023/08/29 01:37:09;;;;;;;2.42;0.82;;;;;;;14.86;77.61;99934.41;4964877;29;20027;-61
2023/08/29 01:39:34;;;;;;;6.28;1.13;;;;;;;14.81;77.85;99925.84;4964793;29;20049;-61
2023/08/29 01:41:59;;;;;;;2.75;1.17;;;;;;;14.82;77.50;99924.09;4965250;29;20031;-61
2023/08/29 01:44:25;;;;;;;3.53;1.25;;;;;;;14.80;77.65;99928.50;4964957;29;20127;-61
2023/08/29 01:46:50;;;;;;;2.75;0.98;;;;;;;14.74;77.93;99933.00;4965205;29;20083;-61
2023/08/29 01:49:16;;;;;;;1.77;1.08;;;;;;;14.75;77.65;99926.88;4965200;29;20027;-61
2023/08/29 01:51:41;;;;;;;1.33;0.70;;;;;;;14.76;77.92;99930.34;4965336;29;20110;-61
2023/08/29 01:54:06;;;;;;;2.05;1.00;;;;;;;14.74;77.51;99914.72;4965051;29;20031;-61
2023/08/29 01:56:33;;;;;;;2.75;0.98;;;;;;;14.82;77.20;99926.72;4965194;29;20058;-61
2023/08/29 01:58:59;;;;;;;2.17;1.17;;;;;;;14.83;77.47;99917.94;4965353;29;20046;-61
2023/08/29 02:01:25;;;;;;;5.85;1.88;;;;;;;14.78;77.65;99925.91;4964672;29;20066;-61
2023/08/29 02:03:51;;;;;;;7.00;1.05;;;;;;;14.79;77.51;99932.00;4976858;28;20038;-61
2023/08/29 02:06:16;;;;;;;2.15;1.10;;;;;;;14.76;77.42;99927.72;5006094;28;20487;-61
2023/08/29 02:08:42;;;;;;;1.77;1.17;;;;;;;14.76;77.24;99935.56;5005641;28;20030;-61
2023/08/29 02:11:07;;;;;;;3.00;1.58;;;;;;;14.79;77.48;99938.09;5005993;28;20080;-61
2023/08/29 02:13:33;;;;;;;2.42;0.77;;;;;;;14.79;77.38;99943.31;5005900;28;20029;-61
2023/08/29 02:16:01;;;;;;;4.22;1.30;;;;;;;14.79;77.56;99938.09;5005846;28;20066;-61
2023/08/29 02:18:26;;;;;;;5.43;1.65;;;;;;;14.80;77.30;99937.22;5005999;28;20065;-61
2023/08/29 02:20:51;;;;;;;0.63;0.60;;;;;;;14.76;77.07;99935.56;5005747;28;20022;-61
2023/08/29 02:23:17;;;;;;;1.20;0.88;;;;;;;14.72;76.80;99934.84;5005516;28;20022;-61
2023/08/29 02:25:42;;;;;;;5.22;1.15;;;;;;;14.74;76.72;99940.84;5005702;28;20402;-61
2023/08/29 02:28:07;;;;;;;2.90;1.05;;;;;;;14.72;76.74;99927.00;5005862;28;20037;-62
2023/08/29 02:30:36;;;;;;;1.67;0.98;;;;;;;14.72;76.65;99937.44;5005626;28;20018;-61
2023/08/29 02:33:01;;;;;;;6.10;1.73;;;;;;;14.67;76.72;99930.66;5005610;28;20034;-61
2023/08/29 02:35:27;;;;;;;0.77;0.77;;;;;;;14.62;76.67;99925.56;5005494;28;20022;-61
2023/08/29 02:37:52;;;;;;;1.38;1.10;;;;;;;14.66;76.41;99932.44;5004264;28;20022;-62
2023/08/29 02:40:18;;;;;;;1.85;1.02;;;;;;;14.60;76.44;99935.25;5004295;28;20160;-61
2023/08/29 02:42:43;;;;;;;1.45;0.95;;;;;;;14.53;76.51;99937.19;5005677;28;20046;-62
2023/08/29 02:45:09;;;;;;;1.88;1.02;;;;;;;14.46;76.65;99943.50;5005823;28;20033;-61
2023/08/29 02:47:34;;;;;;;1.83;1.05;;;;;;;14.35;76.91;99944.72;5007148;28;20467;-62
2023/08/29 02:50:00;;;;;;;3.80;0.93;;;;;;;14.28;77.15;99934.50;5009436;28;20114;-61
2023/08/29 02:52:25;;;;;;;4.10;1.48;;;;;;;14.26;76.74;99937.19;5009622;28;20038;-61
2023/08/29 02:54:50;;;;;;;0.85;0.65;;;;;;;14.20;76.45;99935.59;5009207;28;20045;-61
2023/08/29 02:57:16;;;;;;;6.10;1.48;;;;;;;14.19;76.23;99933.91;5009192;28;20453;-61
2023/08/29 02:59:41;;;;;;;2.08;0.95;;;;;;;14.17;76.60;99925.25;5009075;28;20018;-61
2023/08/29 03:02:06;;;;;;;3.05;1.25;;;;;;;14.13;76.13;99934.94;5009121;28;20097;-61
2023/08/29 03:04:32;;;;;;;3.15;0.88;;;;;;;14.10;75.85;99927.22;5007882;28;20026;-61
2023/08/29 03:06:58;;;;;;;1.92;1.05;;;;;;;14.20;75.87;99947.81;5009407;28;20030;-60
2023/08/29 03:09:24;;;;;;;3.03;0.88;;;;;;;14.21;75.98;99936.47;5008810;28;20022;-62
2023/08/29 03:11:49;;;;;;;3.30;1.02;;;;;;;14.23;75.57;99935.50;5009354;28;20026;-62
2023/08/29 03:14:15;;;;;;;6.50;1.08;;;;;;;14.26;75.37;99945.00;5009047;28;20033;-61
2023/08/29 03:16:40;;;;;;;2.53;1.40;;;;;;;14.27;75.27;99944.09;5008939;28;20069;-61
2023/08/29 03:19:06;;;;;;;1.88;1.13;;;;;;;14.27;75.08;99945.84;5008823;28;20045;-61
2023/08/29 03:21:31;;;;;;;3.15;1.65;;;;;;;14.27;75.16;99938.88;5008789;28;20042;-61
2023/08/29 03:23:56;;;;;;;1.33;0.80;;;;;;;14.29;75.13;99933.59;5008793;28;20045;-61
2023/08/29 03:26:22;;;;;;;1.88;1.13;;;;;;;14.23;74.98;99932.06;5007304;28;20033;-60
2023/08/29 03:28:48;;;;;;;1.55;0.88;;;;;;;14.21;74.63;99942.53;5008645;28;20049;-60
2023/08/29 03:31:16;;;;;;;1.67;1.17;;;;;;;14.19;74.83;99935.63;5008695;28;20086;-61
2023/08/29 03:33:42;;;;;;;1.48;0.70;;;;;;;14.12;74.40;99935.84;5009200;28;20054;-61
2023/08/29 03:36:08;;;;;;;5.93;1.35;;;;;;;14.08;74.39;99938.59;5008553;28;20038;-62
2023/08/29 03:38:35;;;;;;;2.60;1.05;;;;;;;13.98;74.48;99927.56;5008135;28;20086;-62
2023/08/29 03:41:01;;;;;;;3.03;1.17;;;;;;;13.98;74.12;99941.47;5008664;28;20023;-62
2023/08/29 03:43:30;;;;;;;2.40;1.23;;;;;;;13.96;74.32;99948.50;5008605;28;20406;-62
2023/08/29 03:46:06;;;;;;;8.93;1.33;;;;;;;13.93;74.48;99950.38;5008366;28;20034;-61
2023/08/29 03:48:33;;;;;;;2.25;0.63;;;;;;;13.92;74.47;99948.63;5008376;28;20045;-61
2023/08/29 03:51:01;;;;;;;1.38;1.10;;;;;;;13.90;74.21;99948.69;5008130;28;20026;-61
2023/08/29 03:53:27;;;;;;;2.45;1.17;;;;;;;13.91;74.42;99949.53;5023167;28;20023;-61
2023/08/29 03:55:52;;;;;;;0.73;0.73;;;;;;;13.95;74.39;99954.63;5008244;28;20032;-61
2023/08/29 03:58:17;;;;;;;1.27;1.05;;;;;;;13.95;74.16;99957.22;5008250;28;20054;-60
2023/08/29 04:00:43;;;;;;;1.63;0.75;;;;;;;13.95;74.06;99957.22;5008016;28;20030;-61
2023/08/29 04:03:09;;;;;;;2.67;1.00;;;;;;;13.99;74.46;99960.63;5007833;28;20087;-61
2023/08/29 04:05:35;;;;;;;1.55;0.82;;;;;;;13.96;74.18;99956.31;5007853;28;20022;-60
2023/08/29 04:08:02;;;;;;;3.53;1.05;;;;;;;14.02;74.17;99959.66;5006293;28;20046;-61
2023/08/29 04:10:28;;;;;;;1.98;1.45;;;;;;;14.05;74.24;99968.25;5007819;28;20034;-62
2023/08/29 04:12:53;;;;;;;1.17;0.75;;;;;;;14.08;74.17;99973.38;5008021;28;20026;-60
2023/08/29 04:15:19;;;;;;;1.42;0.80;;;;;;;14.11;74.17;99975.91;5007730;28;20054;-61
2023/08/29 04:17:44;;;;;;;1.13;1.02;;;;;;;14.09;74.24;99982.06;5007932;28;20057;-61
2023/08/29 04:20:12;;;;;;;2.58;1.33;;;;;;;14.14;74.01;99985.38;5007769;28;20027;-61
2023/08/29 04:22:38;;;;;;;8.77;1.05;;;;;;;14.18;74.24;99999.22;5007553;28;20394;-61
2023/08/29 04:25:05;;;;;;;1.13;0.80;;;;;;;14.21;74.40;100014.78;5007765;28;20026;-61
2023/08/29 04:27:31;;;;;;;3.92;0.90;;;;;;;14.24;74.32;100012.06;5006353;28;20061;-62
2023/08/29 04:29:56;;;;;;;1.92;1.00;;;;;;;14.28;74.12;100016.28;5007795;28;20019;-62
2023/08/29 04:32:22;;;;;;;2.45;1.20;;;;;;;14.28;74.33;100015.44;5007676;28;20045;-61
2023/08/29 04:34:47;;;;;;;1.45;0.85;;;;;;;14.29;74.15;99996.25;5007814;28;20084;-62
2023/08/29 04:37:13;;;;;;;4.40;1.17;;;;;;;14.24;73.82;99991.19;5007218;28;20031;-61
2023/08/29 04:39:38;;;;;;;2.55;0.85;;;;;;;14.26;73.82;99989.38;5007548;28;20023;-61
2023/08/29 04:42:04;;;;;;;5.38;0.80;;;;;;;14.25;73.85;99990.28;5007422;28;20030;-61
2023/08/29 04:44:29;;;;;;;0.70;0.70;;;;;;;14.32;73.96;99983.97;5007320;28;20082;-62
2023/08/29 04:46:55;;;;;;;3.60;1.30;;;;;;;14.40;73.93;99980.25;5007274;28;20026;-61
2023/08/29 04:49:21;;;;;;;4.68;1.40;;;;;;;14.69;74.55;99968.03;5005784;28;20022;-62
2023/08/29 04:51:46;;;;;;;2.15;1.00;;;;;;;15.10;74.80;99968.44;5007168;28;20026;-61
2023/08/29 04:54:12;;;;;;;1.52;0.80;;;;;;;15.49;73.65;99961.84;5007066;28;20026;-62
2023/08/29 04:56:37;;;;;;;3.85;0.80;;;;;;;15.85;73.63;99960.53;5006843;28;20022;-62
2023/08/29 04:59:03;;;;;;;1.90;1.02;;;;;;;16.26;73.15;99964.28;5007121;28;20022;-61
2023/08/29 05:01:29;;;;;;;5.47;0.88;;;;;;;16.58;72.48;99966.53;5006868;28;20049;-62
2023/08/29 05:03:54;;;;;;;1.50;0.70;;;;;;;16.66;70.50;99966.22;5006946;28;20018;-62
2023/08/29 05:06:19;;;;;;;2.75;0.95;;;;;;;16.77;71.22;99950.91;5006962;28;20033;-62
2023/08/29 05:08:45;;;;;;;0.85;0.80;;;;;;;16.94;70.10;99949.31;5006545;28;20071;-61
2023/08/29 05:11:10;;;;;;;3.25;0.88;;;;;;;17.11;69.60;99945.16;5006531;28;20029;-62
2023/08/29 05:13:35;;;;;;;2.70;1.08;;;;;;;17.14;69.44;99943.25;5005450;28;20029;-61
2023/08/29 05:16:01;;;;;;;0.80;0.50;;;;;;;17.33;69.89;99956.41;5006703;28;20046;-61
2023/08/29 05:18:27;;;;;;;4.03;1.02;;;;;;;17.33;67.96;99960.81;5006582;28;20517;-61
2023/08/29 05:20:52;;;;;;;2.35;1.10;;;;;;;17.12;66.87;99963.47;5006922;28;20030;-61
2023/08/29 05:23:17;;;;;;;2.47;0.95;;;;;;;16.99;66.92;99957.84;5006649;28;20046;-61
2023/08/29 05:25:43;;;;;;;5.13;1.20;;;;;;;16.89;66.12;99961.75;5006562;28;20029;-61
2023/08/29 05:28:08;;;;;;;2.03;0.85;;;;;;;16.80;66.60;99958.63;5006448;28;20030;-61
2023/08/29 05:30:35;;;;;;;0.85;0.63;;;;;;;16.73;66.90;99978.13;5006385;28;20022;-61
2023/08/29 05:33:00;;;;;;;3.50;1.17;;;;;;;16.55;66.94;99987.63;5006582;28;20037;-61
2023/08/29 05:35:25;;;;;;;1.05;0.85;;;;;;;16.46;66.68;99980.97;5006187;28;20026;-62
2023/08/29 05:37:51;;;;;;;3.58;0.77;;;;;;;16.43;66.78;99986.31;5006474;28;20030;-62
2023/08/29 05:40:16;;;;;;;1.23;0.80;;;;;;;16.45;66.87;99990.59;5006162;28;20030;-61
2023/08/29 05:42:42;;;;;;;1.02;0.88;;;;;;;16.35;65.94;99979.63;5006474;28;20109;-61
2023/08/29 05:45:07;;;;;;;0.68;0.50;;;;;;;16.41;66.54;99994.25;5006232;28;20026;-61
2023/08/29 05:47:33;;;;;;;2.58;1.00;;;;;;;16.56;66.64;99986.69;5021234;28;20026;-62
2023/08/29 05:49:58;;;;;;;2.05;0.85;;;;;;;16.59;65.87;99974.34;5005783;28;20026;-62
2023/08/29 05:52:23;;;;;;;1.13;0.88;;;;;;;16.71;66.79;99959.00;5005862;28;20116;-62
2023/08/29 05:54:49;;;;;;;1.48;0.95;;;;;;;16.90;66.53;99955.63;5005968;28;20026;-61
2023/08/29 05:57:15;;;;;;;0.43;0.43;;;;;;;17.15;66.88;99954.59;5006423;28;20018;-62
2023/08/29 05:59:40;;;;;;;1.58;0.95;;;;;;;17.38;67.38;99947.50;5005843;28;20101;-61
2023/08/29 06:02:05;;;;;;;0.75;0.60;;;;;;;17.79;67.55;99947.41;5005850;28;20018;-62
2023/08/29 06:04:32;;;;;;;7.72;0.90;;;;;;;18.06;67.06;99944.41;5005684;28;20030;-62
2023/08/29 06:06:58;;;;;;;1.95;0.90;;;;;;;18.27;66.52;99931.19;5005780;28;20026;-62
2023/08/29 06:09:23;;;;;;;1.35;0.80;;;;;;;18.53;66.58;99929.06;5005433;28;20018;-62
2023/08/29 06:11:49;;;;;;;0.82;0.60;;;;;;;18.86;66.84;99931.84;5021056;28;20493;-63
2023/08/29 06:14:14;;;;;;;0.73;0.70;;;;;;;18.98;65.31;99939.09;5005898;28;20027;-62
2023/08/29 06:16:40;;;;;;;2.03;1.10;;;;;;;18.93;64.50;99935.88;5005426;28;20050;-62
2023/08/29 06:19:05;;;;;;;1.00;0.70;;;;;;;18.85;63.65;99941.50;5005814;28;20095;-62
2023/08/29 06:21:30;;;;;;;1.95;0.63;;;;;;;18.71;62.46;99944.84;5005319;28;20037;-61
2023/08/29 06:23:56;;;;;;;1.17;0.68;;;;;;;18.55;61.59;99948.22;5005172;28;20030;-62
2023/08/29 06:26:21;;;;;;;1.33;0.95;;;;;;;18.50;61.52;99950.22;5005880;28;20030;-61
2023/08/29 06:28:47;;;;;;;2.92;1.08;;;;;;;18.51;61.73;99946.69;5005586;28;20034;-61
2023/08/29 06:31:12;;;;;;;1.65;0.55;;;;;;;18.63;62.27;99931.22;5005941;28;20018;-62
2023/08/29 06:33:39;;;;;;;1.00;0.70;;;;;;;18.99;61.81;99943.47;5005594;28;20032;-61
2023/08/29 06:36:05;;;;;;;1.80;0.73;;;;;;;19.26;61.77;99937.72;5005529;28;20540;-62
2023/08/29 06:38:30;;;;;;;1.05;0.60;;;;;;;19.27;60.46;99925.38;5005300;28;20049;-62
2023/08/29 06:40:57;;;;;;;7.57;0.70;;;;;;;19.15;60.16;99926.91;5005698;28;20109;-62
2023/08/29 06:43:23;;;;;;;1.08;0.80;;;;;;;19.22;60.86;99933.53;5005314;28;20030;-62
2023/08/29 06:45:49;;;;;;;1.67;0.80;;;;;;;19.53;61.12;99942.44;5005322;28;20049;-62
2023/08/29 06:48:14;;;;;;;3.70;0.88;;;;;;;19.86;61.20;99929.28;5005351;28;20026;-62
2023/08/29 06:50:40;;;;;;;1.33;0.57;;;;;;;20.22;60.63;99927.34;5005593;28;20026;-62
2023/08/29 06:53:06;;;;;;;2.47;1.05;;;;;;;20.41;60.19;99927.16;5005236;28;20037;-61
2023/08/29 06:55:35;;;;;;;1.92;1.10;;;;;;;20.53;58.71;99931.72;5005302;28;20566;-62
2023/08/29 06:58:06;;;;;;;2.70;0.57;;;;;;;20.66;57.62;99931.84;5005545;28;20050;-62
2023/08/29 07:00:32;;;;;;;;;;;;;;;20.72;56.00;99946.47;5005568;28;20466;-61
2023/08/29 07:02:58;;;;;;;2.03;0.75;;;;;;;20.76;56.92;99937.44;5005496;28;19910;-62
2023/08/29 07:05:24;;;;;;;2.35;1.05;;;;;;;20.73;57.27;99945.53;5004801;28;20053;-62
2023/08/29 07:07:49;;;;;;;6.32;0.60;;;;;;;20.89;56.83;99944.63;5005149;28;20467;-62
2023/08/29 07:10:15;;;;;;;1.92;0.70;;;;;;;21.01;56.16;99940.41;5005144;28;20050;-62
2023/08/29 07:12:42;;;;;;;2.22;0.90;;;;;;;20.93;55.47;99944.38;5005350;28;20026;-62
2023/08/29 07:15:07;;;;;;;0.52;0.52;;;;;;;20.92;55.49;99957.66;5005463;28;20025;-61
2023/08/29 07:17:33;;;;;;;1.60;0.93;;;;;;;21.10;55.69;99961.00;5005259;28;20054;-62
2023/08/29 07:19:58;;;;;;;1.80;0.75;;;;;;;21.22;53.75;99964.69;5005319;28;20188;-62
2023/08/29 07:22:23;;;;;;;3.72;1.05;;;;;;;21.26;52.74;99954.78;5005122;28;20022;-61
2023/08/29 07:24:49;;;;;;;1.05;0.60;;;;;;;21.49;53.48;99958.66;5005016;28;20030;-62
2023/08/29 07:27:14;;;;;;;0.47;0.40;;;;;;;21.78;53.05;99948.09;5005086;28;20026;-62
2023/08/29 07:29:41;;;;;;;6.63;0.88;;;;;;;22.04;52.70;99956.13;5005185;28;20356;-61
2023/08/29 07:32:07;;;;;;;1.25;0.57;;;;;;;22.33;53.12;99954.38;5003573;28;20026;-61
2023/08/29 07:34:32;;;;;;;1.30;0.70;;;;;;;22.29;50.47;99951.94;5007293;28;20022;-62
2023/08/29 07:36:57;;;;;;;0.95;0.52;;;;;;;22.11;51.12;99953.97;5008259;28;20558;-63
2023/08/29 07:39:24;;;;;;;3.63;0.93;;;;;;;21.94;50.32;99954.19;5008386;28;20102;-63
2023/08/29 07:41:50;;;;;;;0.73;0.40;;;;;;;21.60;50.79;99954.50;5007346;28;20080;-62
2023/08/29 07:44:15;;;;;;;0.98;0.65;;;;;;;21.27;51.91;99953.84;5008417;28;20291;-62
2023/08/29 07:46:40;;;;;;;1.23;0.68;;;;;;;21.65;51.80;99960.34;5008094;28;20026;-62
2023/08/29 07:49:13;;;;;;;1.70;0.77;;;;;;;21.71;49.86;99975.78;5008691;28;20021;-61
2023/08/29 07:51:40;;;;;;;0.80;0.52;;;;;;;21.64;50.76;99985.91;5008602;28;20088;-63
2023/08/29 07:54:05;;;;;;;1.35;0.80;;;;;;;21.69;51.53;99979.50;5008152;28;20050;-62
2023/08/29 07:56:30;;;;;;;0.90;0.32;;;;;;;22.16;50.79;99982.75;5008283;28;20041;-62
2023/08/29 07:58:56;;;;;;;0.88;0.50;;;;;;;22.64;49.86;99973.53;5008152;28;20340;-61
2023/08/29 08:01:21;;;;;;;8.23;1.00;;;;;;;22.49;47.55;99965.63;5008239;28;20034;-62
2023/08/29 08:03:47;;;;;;;0.70;0.47;;;;;;;22.06;48.31;99976.34;5008121;28;20394;-61
2023/08/29 08:06:12;;;;;;;1.17;0.57;;;;;;;21.45;48.22;99975.63;5008213;28;20081;-61
2023/08/29 08:08:37;;;;;;;1.00;0.55;;;;;;;21.16;48.56;99981.75;5007665;28;20057;-62
2023/08/29 08:11:04;;;;;;;0.63;0.55;;;;;;;20.84;48.81;99980.97;5007769;28;20034;-62
2023/08/29 08:13:30;;;;;;;2.85;0.45;;;;;;;20.54;49.75;99983.50;5007888;28;20096;-63
2023/08/29 08:15:55;;;;;;;1.80;0.77;;;;;;;20.71;50.15;99980.84;5007530;28;20562;-61
2023/08/29 08:18:21;;;;;;;2.30;0.50;;;;;;;21.23;50.25;99979.56;5007670;28;20046;-61
2023/08/29 08:20:46;;;;;;;1.70;1.10;;;;;;;21.83;49.69;99976.00;5007664;28;20057;-62
2023/08/29 08:23:12;;;;;;;1.73;0.80;;;;;;;21.96;49.10;99969.03;5007414;28;20060;-62
2023/08/29 08:25:37;;;;;;;0.98;0.68;;;;;;;22.45;49.03;99973.84;5008027;28;20050;-61
2023/08/29 08:28:05;;;;;;;0.60;0.60;;;;;;;22.59;48.05;99972.97;5007760;28;20498;-61
2023/08/29 08:30:31;;;;;;;1.02;0.60;;;;;;;22.96;46.06;99967.88;5007525;28;20020;-61
2023/08/29 08:32:56;;;;;;;0.90;0.40;;;;;;;23.42;46.85;99978.09;5007350;28;20090;-62
2023/08/29 08:35:21;;;;;;;2.00;0.60;;;;;;;23.88;45.60;99981.94;5007639;28;20090;-62
2023/08/29 08:37:47;;;;;;;0.73;0.43;;;;;;;24.35;44.76;99982.13;5007374;28;20029;-62
2023/08/29 08:40:15;;;;;;;0.50;0.50;;;;;;;24.76;43.21;99987.94;5007194;28;20130;-62
2023/08/29 08:42:40;;;;;;;2.15;0.88;;;;;;;24.89;42.87;99984.38;5007537;28;20030;-62
2023/08/29 08:45:07;;;;;;;1.45;0.70;;;;;;;24.91;42.89;99974.50;5006185;28;20037;-61
2023/08/29 08:47:37;;;;;;;0.45;0.40;;;;;;;25.04;42.54;99981.53;5007225;28;20048;-62
2023/08/29 08:50:04;;;;;;;1.25;0.73;;;;;;;24.53;42.72;99979.06;5007254;28;20101;-61
2023/08/29 08:52:33;;;;;;;0.98;0.55;;;;;;;24.27;43.34;99981.81;5007024;28;20105;-61
2023/08/29 08:54:59;;;;;;;2.83;0.70;;;;;;;24.14;43.52;99977.38;5006658;28;20058;-62
2023/08/29 08:57:24;;;;;;;1.98;0.77;;;;;;;23.66;44.15;99985.28;5006920;28;20019;-62
2023/08/29 08:59:50;;;;;;;1.42;0.73;;;;;;;23.82;44.26;99993.81;5006470;28;20026;-61
2023/08/29 09:02:17;;;;;;;0.85;0.73;;;;;;;23.37;44.13;100000.41;5006764;28;20026;-62
2023/08/29 09:04:43;;;;;;;9.60;0.68;;;;;;;22.75;43.81;100001.91;5006528;28;20078;-61
2023/08/29 09:07:09;;;;;;;1.10;0.63;;;;;;;22.73;45.08;100002.00;5006820;28;20146;-61
2023/08/29 09:09:34;;;;;;;1.58;0.75;;;;;;;23.02;44.62;100001.00;5006662;28;20050;-61
2023/08/29 09:12:00;;;;;;;1.52;0.70;;;;;;;22.87;43.82;100002.91;5007058;28;20030;-62
2023/08/29 09:14:26;;;;;;;2.85;0.85;;;;;;;22.17;44.51;100013.53;5006662;28;20032;-61
2023/08/29 09:16:52;;;;;;;1.55;1.08;;;;;;;21.65;45.90;100013.16;5006665;28;20057;-62
2023/08/29 09:19:20;;;;;;;1.92;0.88;;;;;;;21.22;46.66;100012.19;5005099;28;20030;-62
2023/08/29 09:21:45;;;;;;;4.32;0.68;;;;;;;21.24;47.95;100012.09;5004520;28;20019;-61
2023/08/29 09:24:14;;;;;;;2.42;0.73;;;;;;;21.20;47.25;100008.78;5005230;28;20033;-61
2023/08/29 09:26:41;;;;;;;1.42;0.93;;;;;;;21.51;47.98;100014.00;5006335;28;20113;-62
2023/08/29 09:29:20;;;;;;;1.88;0.90;;;;;;;22.33;46.40;99999.31;5006343;28;20049;-61
2023/08/29 09:31:47;;;;;;;1.23;0.55;;;;;;;22.36;46.28;100005.28;5006481;28;20053;-62
2023/08/29 09:34:25;;;;;;;0.60;0.40;;;;;;;21.86;46.35;100005.75;5006063;28;20026;-61
2023/08/29 09:36:51;;;;;;;3.67;0.70;;;;;;;21.35;47.42;100007.03;5006094;28;20022;-61
2023/08/29 09:39:17;;;;;;;1.92;1.35;;;;;;;20.94;48.19;99998.00;5021118;28;20085;-61
2023/08/29 09:41:42;;;;;;;2.10;0.98;;;;;;;20.74;48.67;99993.84;5006080;28;20026;-62
2023/08/29 09:44:12;;;;;;;1.73;1.17;;;;;;;20.45;48.91;100007.75;5006144;28;20061;-60
2023/08/29 09:46:43;;;;;;;5.97;0.82;;;;;;;20.17;50.08;100009.31;5005589;28;20022;-60
2023/08/29 09:49:08;;;;;;;1.73;0.70;;;;;;;20.54;49.47;100001.97;5006131;28;20018;-62
2023/08/29 09:51:35;;;;;;;1.33;0.60;;;;;;;21.05;49.87;100011.41;5005617;28;20094;-61
2023/08/29 09:54:04;;;;;;;0.50;0.50;;;;;;;21.71;48.30;100011.94;5005462;28;20030;-61
2023/08/29 09:56:31;;;;;;;2.97;1.05;;;;;;;22.22;47.66;100007.94;5005756;28;20022;-61
2023/08/29 09:58:59;;;;;;;1.65;0.70;;;;;;;22.32;47.68;100010.84;5005386;28;20026;-62
2023/08/29 10:01:26;;;;;;;8.32;0.80;;;;;;;22.21;47.37;100009.72;5005713;28;20353;-61
2023/08/29 10:03:51;;;;;;;1.65;0.90;;;;;;;22.09;47.07;100011.38;5005370;28;20029;-62
2023/08/29 10:06:19;;;;;;;1.00;0.60;;;;;;;21.75;45.88;100016.09;5005727;28;20035;-61
2023/08/29 10:08:55;;;;;;;8.88;0.68;;;;;;;21.25;46.49;100008.50;5005058;28;20030;-61
2023/08/29 10:11:22;;;;;;;1.13;0.70;;;;;;;20.92;46.88;100003.38;5005763;28;20029;-62
2023/08/29 10:13:48;;;;;;;3.40;0.65;;;;;;;20.78;47.68;99979.56;5005539;28;20554;-61
2023/08/29 10:16:15;;;;;;;0.60;0.50;;;;;;;21.02;48.38;99995.75;5005359;28;20066;-62
2023/08/29 10:18:41;;;;;;;1.50;0.65;;;;;;;21.16;48.03;100000.22;5004095;28;20022;-62
2023/08/29 10:21:07;;;;;;;0.85;0.50;;;;;;;21.22;48.43;100000.78;5005468;28;20057;-62
2023/08/29 10:23:35;;;;;;;0.73;0.60;;;;;;;21.41;48.46;100000.50;5005444;28;20025;-61
2023/08/29 10:26:01;;;;;;;0.63;0.50;;;;;;;21.40;47.44;100010.25;5020335;28;20463;-62
2023/08/29 10:28:28;;;;;;;1.00;0.60;;;;;;;21.25;46.65;100006.72;5005562;28;20034;-62
2023/08/29 10:30:59;;;;;;;0.52;0.50;;;;;;;21.07;47.08;100007.84;5005573;28;20026;-61
2023/08/29 10:33:25;;;;;;;1.45;0.80;;;;;;;21.13;46.67;100002.19;5005235;28;20023;-62
2023/08/29 10:35:50;;;;;;;0.43;0.43;;;;;;;21.16;46.86;100012.56;5005259;28;20033;-61
2023/08/29 10:38:17;;;;;;;1.25;0.57;;;;;;;21.16;46.40;100000.22;5005058;28;20030;-62
2023/08/29 10:40:44;;;;;;;0.57;0.55;;;;;;;21.23;47.01;100002.50;5005362;28;20022;-64
2023/08/29 10:43:20;;;;;;;1.83;0.60;;;;;;;21.42;46.58;100003.06;5005448;28;20022;-62
2023/08/29 10:45:49;;;;;;;1.50;0.77;;;;;;;21.43;47.30;100001.28;5005363;28;20080;-61
2023/08/29 10:48:43;;;;;;;2.00;0.63;;;;;;;21.56;46.91;99996.09;5005420;28;20023;-62
2023/08/29 10:51:11;;;;;;;0.40;0.40;;;;;;;21.49;45.76;100000.91;5005219;28;20030;-61
2023/08/29 10:53:51;;;;;;;0.80;0.50;;;;;;;21.36;45.33;99992.88;5005091;28;20049;-62
2023/08/29 10:56:20;;;;;;;1.13;0.70;;;;;;;21.50;46.46;99993.84;5005259;28;20034;-61
2023/08/29 10:58:50;;;;;;;1.98;0.63;;;;;;;21.99;46.48;99989.97;5004746;28;20553;-62
2023/08/29 11:01:24;;;;;;;1.10;0.73;;;;;;;22.14;44.65;99987.28;5005171;28;20105;-62
2023/08/29 11:03:50;;;;;;;0.60;0.50;;;;;;;21.94;44.05;99988.53;5004800;28;20048;-61
2023/08/29 11:06:18;;;;;;;0.75;0.50;;;;;;;21.62;44.65;99986.94;5005341;28;20045;-62
2023/08/29 11:08:44;;;;;;;0.70;0.50;;;;;;;21.38;44.20;99988.38;5006383;28;20150;-61
2023/08/29 11:11:22;;;;;;;3.83;0.70;;;;;;;21.04;45.69;99993.88;5009079;28;20050;-60
2023/08/29 11:13:58;;;;;;;0.50;0.50;;;;;;;20.84;47.19;99986.25;5008638;28;20049;-61
2023/08/29 11:16:24;;;;;;;0.70;0.60;;;;;;;20.88;47.89;99991.25;5008526;28;20105;-61
2023/08/29 11:19:04;;;;;;;1.30;0.73;;;;;;;21.02;47.20;99993.09;5008827;28;20026;-61
2023/08/29 11:21:30;;;;;;;0.40;0.35;;;;;;;21.12;47.35;99993.41;5008690;28;20026;-60
2023/08/29 11:23:57;;;;;;;0.95;0.45;;;;;;;21.10;47.31;99983.91;5008443;28;20046;-61
2023/08/29 11:26:25;;;;;;;1.15;0.45;;;;;;;21.12;47.74;99982.84;5008462;28;20050;-61
2023/08/29 11:28:51;;;;;;;0.47;0.40;;;;;;;21.27;48.13;99978.47;5008226;28;20038;-60